sensor_id;sensor_type;location;lat;lon;timestamp;pressure;altitude;pressure_sealevel;temperature;humidity
36798;BME280;22748;8.426;99.512;2023-07-20T00:01:47;100508.13;;;28.57;71.81
36798;BME280;22748;8.426;99.512;2023-07-20T00:04:25;100506.28;;;28.58;71.45
36798;BME280;22748;8.426;99.512;2023-07-20T00:06:56;100515.16;;;28.58;71.44
36798;BME280;22748;8.426;99.512;2023-07-20T00:09:32;100519.91;;;28.56;71.53
36798;BME280;22748;8.426;99.512;2023-07-20T00:12:09;100517.41;;;28.55;71.54
36798;BME280;22748;8.426;99.512;2023-07-20T00:14:40;100518.03;;;28.57;71.70
36798;BME280;22748;8.426;99.512;2023-07-20T00:17:16;100518.66;;;28.32;72.30
36798;BME280;22748;8.426;99.512;2023-07-20T00:20:02;100510.19;;;28.42;72.03
36798;BME280;22748;8.426;99.512;2023-07-20T00:22:37;100500.91;;;28.51;72.21
36798;BME280;22748;8.426;99.512;2023-07-20T00:25:09;100489.91;;;28.46;72.42
36798;BME280;22748;8.426;99.512;2023-07-20T00:27:45;100510.22;;;28.48;72.03
36798;BME280;22748;8.426;99.512;2023-07-20T00:30:29;100516.22;;;28.50;72.25
36798;BME280;22748;8.426;99.512;2023-07-20T00:33:16;100520.09;;;28.55;72.57
36798;BME280;22748;8.426;99.512;2023-07-20T00:36:04;100518.03;;;28.57;72.17
36798;BME280;22748;8.426;99.512;2023-07-20T00:38:39;100530.44;;;28.58;72.40
36798;BME280;22748;8.426;99.512;2023-07-20T00:41:10;100534.56;;;28.60;72.75
36798;BME280;22748;8.426;99.512;2023-07-20T00:43:47;100529.41;;;28.59;72.48
36798;BME280;22748;8.426;99.512;2023-07-20T00:46:24;100536.00;;;28.63;72.48
36798;BME280;22748;8.426;99.512;2023-07-20T00:49:01;100526.31;;;28.62;72.76
36798;BME280;22748;8.426;99.512;2023-07-20T00:52:03;100547.81;;;28.62;72.46
36798;BME280;22748;8.426;99.512;2023-07-20T00:54:41;100537.06;;;28.62;73.01
36798;BME280;22748;8.426;99.512;2023-07-20T00:57:14;100539.31;;;28.58;72.84
36798;BME280;22748;8.426;99.512;2023-07-20T00:59:44;100540.56;;;28.62;72.73
36798;BME280;22748;8.426;99.512;2023-07-20T01:02:17;100544.06;;;28.63;73.54
36798;BME280;22748;8.426;99.512;2023-07-20T01:04:48;100553.38;;;28.67;73.17
36798;BME280;22748;8.426;99.512;2023-07-20T01:07:34;100558.53;;;28.68;73.01
36798;BME280;22748;8.426;99.512;2023-07-20T01:10:16;100551.72;;;28.66;73.34
36798;BME280;22748;8.426;99.512;2023-07-20T01:12:50;100551.91;;;28.71;73.52
36798;BME280;22748;8.426;99.512;2023-07-20T01:15:27;100551.91;;;28.71;73.81
36798;BME280;22748;8.426;99.512;2023-07-20T01:17:58;100554.78;;;28.76;73.64
36798;BME280;22748;8.426;99.512;2023-07-20T01:20:35;100558.50;;;28.82;73.74
36798;BME280;22748;8.426;99.512;2023-07-20T01:23:38;100558.09;;;28.78;74.03
36798;BME280;22748;8.426;99.512;2023-07-20T01:27:00;100553.75;;;28.84;74.51
36798;BME280;22748;8.426;99.512;2023-07-20T01:29:55;100565.72;;;28.95;74.40
36798;BME280;22748;8.426;99.512;2023-07-20T01:32:40;100561.13;;;29.02;74.58
36798;BME280;22748;8.426;99.512;2023-07-20T01:35:12;100564.66;;;29.09;73.89
36798;BME280;22748;8.426;99.512;2023-07-20T01:37:50;100554.31;;;29.12;74.16
36798;BME280;22748;8.426;99.512;2023-07-20T01:40:22;100550.16;;;29.17;74.60
36798;BME280;22748;8.426;99.512;2023-07-20T01:43:00;100545.59;;;29.17;74.07
36798;BME280;22748;8.426;99.512;2023-07-20T01:45:36;100551.16;;;29.22;74.09
36798;BME280;22748;8.426;99.512;2023-07-20T01:48:19;100552.19;;;29.28;74.18
36798;BME280;22748;8.426;99.512;2023-07-20T01:50:50;100561.34;;;29.20;74.33
36798;BME280;22748;8.426;99.512;2023-07-20T01:53:26;100550.81;;;29.12;73.91
36798;BME280;22748;8.426;99.512;2023-07-20T01:56:03;100546.69;;;29.03;73.90
36798;BME280;22748;8.426;99.512;2023-07-20T01:58:45;100550.56;;;29.13;73.33
36798;BME280;22748;8.426;99.512;2023-07-20T02:01:17;100547.69;;;29.15;73.33
36798;BME280;22748;8.426;99.512;2023-07-20T02:03:50;100557.59;;;29.21;73.21
36798;BME280;22748;8.426;99.512;2023-07-20T02:06:28;100544.75;;;29.23;72.54
36798;BME280;22748;8.426;99.512;2023-07-20T02:08:59;100551.81;;;29.18;72.57
36798;BME280;22748;8.426;99.512;2023-07-20T02:11:36;100547.63;;;29.28;72.77
36798;BME280;22748;8.426;99.512;2023-07-20T02:14:12;100547.81;;;29.33;72.43
36798;BME280;22748;8.426;99.512;2023-07-20T02:16:43;100547.38;;;29.37;72.49
36798;BME280;22748;8.426;99.512;2023-07-20T02:19:30;100546.53;;;29.43;72.34
36798;BME280;22748;8.426;99.512;2023-07-20T02:22:07;100555.59;;;29.48;72.17
36798;BME280;22748;8.426;99.512;2023-07-20T02:24:44;100553.91;;;29.54;72.05
36798;BME280;22748;8.426;99.512;2023-07-20T02:27:20;100544.81;;;29.55;72.41
36798;BME280;22748;8.426;99.512;2023-07-20T02:29:56;100555.31;;;29.63;72.29
36798;BME280;22748;8.426;99.512;2023-07-20T02:32:33;100545.75;;;29.67;72.52
36798;BME280;22748;8.426;99.512;2023-07-20T02:35:16;100546.41;;;29.69;72.11
36798;BME280;22748;8.426;99.512;2023-07-20T02:37:53;100551.56;;;29.71;71.77
36798;BME280;22748;8.426;99.512;2023-07-20T02:40:24;100557.78;;;29.71;72.41
36798;BME280;22748;8.426;99.512;2023-07-20T02:43:01;100546.56;;;29.74;72.30
36798;BME280;22748;8.426;99.512;2023-07-20T02:45:41;100537.47;;;29.76;71.80
36798;BME280;22748;8.426;99.512;2023-07-20T02:48:12;100545.09;;;29.79;71.11
36798;BME280;22748;8.426;99.512;2023-07-20T02:50:47;100532.66;;;29.84;71.30
36798;BME280;22748;8.426;99.512;2023-07-20T02:53:23;100538.25;;;29.83;70.39
36798;BME280;22748;8.426;99.512;2023-07-20T02:56:00;100532.44;;;29.86;70.11
36798;BME280;22748;8.426;99.512;2023-07-20T02:58:29;100523.72;;;29.90;70.00
36798;BME280;22748;8.426;99.512;2023-07-20T03:01:00;100523.31;;;29.87;70.01
36798;BME280;22748;8.426;99.512;2023-07-20T03:03:38;100519.59;;;29.88;70.36
36798;BME280;22748;8.426;99.512;2023-07-20T03:06:20;100521.66;;;29.86;70.18
36798;BME280;22748;8.426;99.512;2023-07-20T03:08:51;100517.50;;;29.90;70.27
36798;BME280;22748;8.426;99.512;2023-07-20T03:11:22;100519.94;;;29.91;69.83
36798;BME280;22748;8.426;99.512;2023-07-20T03:13:53;100514.97;;;29.95;69.42
36798;BME280;22748;8.426;99.512;2023-07-20T03:16:24;100503.59;;;29.93;69.60
36798;BME280;22748;8.426;99.512;2023-07-20T03:19:01;100505.81;;;29.96;70.51
36798;BME280;22748;8.426;99.512;2023-07-20T03:34:05;100470.97;;;30.51;68.25
36798;BME280;22748;8.426;99.512;2023-07-20T03:36:37;100481.75;;;30.51;68.65
36798;BME280;22748;8.426;99.512;2023-07-20T03:39:11;100470.28;;;30.56;68.30
36798;BME280;22748;8.426;99.512;2023-07-20T03:41:46;100468.41;;;30.57;67.63
36798;BME280;22748;8.426;99.512;2023-07-20T03:47:38;100467.53;;;30.63;67.84
36798;BME280;22748;8.426;99.512;2023-07-20T03:50:14;100462.72;;;30.65;67.62
36798;BME280;22748;8.426;99.512;2023-07-20T03:52:46;100457.94;;;30.67;67.85
36798;BME280;22748;8.426;99.512;2023-07-20T03:55:16;100461.66;;;30.66;67.71
36798;BME280;22748;8.426;99.512;2023-07-20T03:57:47;100456.75;;;30.63;68.07
36798;BME280;22748;8.426;99.512;2023-07-20T04:00:17;100457.94;;;30.67;67.51
36798;BME280;22748;8.426;99.512;2023-07-20T04:02:49;100457.47;;;30.70;66.79
36798;BME280;22748;8.426;99.512;2023-07-20T04:05:24;100450.66;;;30.67;66.67
36798;BME280;22748;8.426;99.512;2023-07-20T04:07:55;100459.13;;;30.71;66.01
36798;BME280;22748;8.426;99.512;2023-07-20T04:10:27;100452.25;;;30.75;65.96
36798;BME280;22748;8.426;99.512;2023-07-20T04:13:00;100444.97;;;30.75;65.63
36798;BME280;22748;8.426;99.512;2023-07-20T04:15:33;100442.28;;;30.75;65.56
36798;BME280;22748;8.426;99.512;2023-07-20T04:18:03;100473.81;;;30.75;65.75
36798;BME280;22748;8.426;99.512;2023-07-20T04:20:45;100531.88;;;30.52;66.45
36798;BME280;22748;8.426;99.512;2023-07-20T04:23:17;100513.56;;;30.43;66.78
36798;BME280;22748;8.426;99.512;2023-07-20T04:25:48;100512.13;;;30.40;67.03
36798;BME280;22748;8.426;99.512;2023-07-20T04:28:19;100492.66;;;30.38;67.08
36798;BME280;22748;8.426;99.512;2023-07-20T04:30:52;100487.09;;;30.33;67.38
36798;BME280;22748;8.426;99.512;2023-07-20T04:33:22;100492.13;;;30.29;67.95
36798;BME280;22748;8.426;99.512;2023-07-20T04:36:07;100489.47;;;30.23;67.74
36798;BME280;22748;8.426;99.512;2023-07-20T04:38:49;100479.72;;;30.22;67.96
36798;BME280;22748;8.426;99.512;2023-07-20T04:41:19;100488.25;;;30.19;68.46
36798;BME280;22748;8.426;99.512;2023-07-20T04:43:49;100487.13;;;30.26;68.62
36798;BME280;22748;8.426;99.512;2023-07-20T04:46:19;100485.72;;;30.24;68.88
36798;BME280;22748;8.426;99.512;2023-07-20T04:48:50;100483.63;;;30.26;68.53
36798;BME280;22748;8.426;99.512;2023-07-20T04:51:26;100481.56;;;30.28;68.87
36798;BME280;22748;8.426;99.512;2023-07-20T04:53:59;100476.56;;;30.31;68.96
36798;BME280;22748;8.426;99.512;2023-07-20T04:56:33;100478.34;;;30.38;69.62
36798;BME280;22748;8.426;99.512;2023-07-20T04:59:06;100482.63;;;30.45;69.96
36798;BME280;22748;8.426;99.512;2023-07-20T05:01:36;100478.00;;;30.52;69.92
36798;BME280;22748;8.426;99.512;2023-07-20T05:04:10;100469.91;;;30.52;69.44
36798;BME280;22748;8.426;99.512;2023-07-20T05:06:41;100477.69;;;30.61;68.74
36798;BME280;22748;8.426;99.512;2023-07-20T05:09:13;100473.72;;;30.63;69.46
36798;BME280;22748;8.426;99.512;2023-07-20T05:11:42;100474.72;;;30.69;68.58
36798;BME280;22748;8.426;99.512;2023-07-20T05:14:15;100471.56;;;30.72;68.67
36798;BME280;22748;8.426;99.512;2023-07-20T05:16:46;100472.00;;;30.69;68.68
36798;BME280;22748;8.426;99.512;2023-07-20T05:19:17;100457.56;;;30.63;69.10
36798;BME280;22748;8.426;99.512;2023-07-20T05:21:49;100463.41;;;30.60;69.13
36798;BME280;22748;8.426;99.512;2023-07-20T05:24:19;100461.00;;;30.70;68.61
36798;BME280;22748;8.426;99.512;2023-07-20T05:26:50;100451.31;;;30.81;67.86
36798;BME280;22748;8.426;99.512;2023-07-20T05:29:20;100451.50;;;30.86;67.81
36798;BME280;22748;8.426;99.512;2023-07-20T05:31:57;100433.00;;;30.90;67.57
36798;BME280;22748;8.426;99.512;2023-07-20T05:34:28;100436.88;;;30.94;67.64
36798;BME280;22748;8.426;99.512;2023-07-20T05:37:01;100424.16;;;31.01;66.74
36798;BME280;22748;8.426;99.512;2023-07-20T05:39:33;100420.97;;;31.04;67.12
36798;BME280;22748;8.426;99.512;2023-07-20T05:42:04;100410.09;;;31.11;66.28
36798;BME280;22748;8.426;99.512;2023-07-20T05:44:34;100400.03;;;31.18;65.64
36798;BME280;22748;8.426;99.512;2023-07-20T05:47:05;100400.78;;;31.25;65.68
36798;BME280;22748;8.426;99.512;2023-07-20T05:49:35;100393.72;;;31.24;66.30
36798;BME280;22748;8.426;99.512;2023-07-20T05:52:08;100381.88;;;31.25;66.31
36798;BME280;22748;8.426;99.512;2023-07-20T05:54:38;100380.81;;;31.26;66.26
36798;BME280;22748;8.426;99.512;2023-07-20T05:57:10;100380.28;;;31.36;65.71
36798;BME280;22748;8.426;99.512;2023-07-20T05:59:43;100371.03;;;31.44;65.63
36798;BME280;22748;8.426;99.512;2023-07-20T06:02:30;100375.72;;;31.48;65.59
36798;BME280;22748;8.426;99.512;2023-07-20T06:05:01;100382.09;;;31.54;65.34
36798;BME280;22748;8.426;99.512;2023-07-20T06:07:34;100379.03;;;31.62;65.14
36798;BME280;22748;8.426;99.512;2023-07-20T06:10:06;100382.22;;;31.71;64.93
36798;BME280;22748;8.426;99.512;2023-07-20T06:12:36;100382.56;;;31.74;64.64
36798;BME280;22748;8.426;99.512;2023-07-20T06:15:24;100378.31;;;31.78;64.45
36798;BME280;22748;8.426;99.512;2023-07-20T06:17:56;100374.69;;;31.85;64.33
36798;BME280;22748;8.426;99.512;2023-07-20T06:20:28;100362.38;;;31.89;63.72
36798;BME280;22748;8.426;99.512;2023-07-20T06:23:01;100375.88;;;31.89;63.91
36798;BME280;22748;8.426;99.512;2023-07-20T06:25:32;100372.22;;;31.95;63.55
36798;BME280;22748;8.426;99.512;2023-07-20T06:28:04;100358.84;;;32.00;63.19
36798;BME280;22748;8.426;99.512;2023-07-20T06:30:35;100367.56;;;32.02;63.29
36798;BME280;22748;8.426;99.512;2023-07-20T06:33:06;100364.63;;;32.04;62.99
36798;BME280;22748;8.426;99.512;2023-07-20T06:35:36;100357.91;;;32.06;62.18
36798;BME280;22748;8.426;99.512;2023-07-20T06:38:07;100364.38;;;32.05;61.22
36798;BME280;22748;8.426;99.512;2023-07-20T06:40:37;100352.03;;;32.09;61.38
36798;BME280;22748;8.426;99.512;2023-07-20T06:43:08;100345.00;;;32.08;62.28
36798;BME280;22748;8.426;99.512;2023-07-20T06:45:39;100345.59;;;32.10;61.59
36798;BME280;22748;8.426;99.512;2023-07-20T06:48:10;100343.81;;;32.04;62.05
36798;BME280;22748;8.426;99.512;2023-07-20T06:50:45;100339.81;;;31.95;61.79
36798;BME280;22748;8.426;99.512;2023-07-20T06:53:20;100334.19;;;31.85;61.44
36798;BME280;22748;8.426;99.512;2023-07-20T06:55:51;100326.69;;;31.87;60.93
36798;BME280;22748;8.426;99.512;2023-07-20T06:58:21;100325.25;;;31.96;60.76
36798;BME280;22748;8.426;99.512;2023-07-20T07:00:51;100323.53;;;32.02;59.84
36798;BME280;22748;8.426;99.512;2023-07-20T07:03:22;100320.56;;;32.03;59.60
36798;BME280;22748;8.426;99.512;2023-07-20T07:05:54;100310.91;;;32.07;59.52
36798;BME280;22748;8.426;99.512;2023-07-20T07:08:34;100313.75;;;32.12;59.53
36798;BME280;22748;8.426;99.512;2023-07-20T07:11:04;100314.34;;;32.14;59.47
36798;BME280;22748;8.426;99.512;2023-07-20T07:13:34;100314.91;;;32.16;59.61
36798;BME280;22748;8.426;99.512;2023-07-20T07:16:06;100314.06;;;32.16;59.10
36798;BME280;22748;8.426;99.512;2023-07-20T07:18:41;100311.97;;;32.18;59.31
36798;BME280;22748;8.426;99.512;2023-07-20T07:21:11;100309.03;;;32.20;59.32
36798;BME280;22748;8.426;99.512;2023-07-20T07:23:50;100306.91;;;32.22;59.08
36798;BME280;22748;8.426;99.512;2023-07-20T07:26:33;100307.25;;;32.25;59.12
36798;BME280;22748;8.426;99.512;2023-07-20T07:29:04;100312.16;;;32.28;59.32
36798;BME280;22748;8.426;99.512;2023-07-20T07:31:35;100315.81;;;32.22;59.96
36798;BME280;22748;8.426;99.512;2023-07-20T07:34:05;100309.50;;;32.16;59.36
36798;BME280;22748;8.426;99.512;2023-07-20T07:36:36;100317.03;;;32.14;59.63
36798;BME280;22748;8.426;99.512;2023-07-20T07:39:15;100307.84;;;32.15;58.81
36798;BME280;22748;8.426;99.512;2023-07-20T07:41:46;100304.78;;;32.24;58.76
36798;BME280;22748;8.426;99.512;2023-07-20T07:44:17;100303.84;;;32.30;58.62
36798;BME280;22748;8.426;99.512;2023-07-20T07:46:49;100308.75;;;32.33;58.54
36798;BME280;22748;8.426;99.512;2023-07-20T07:49:20;100307.69;;;32.34;57.77
36798;BME280;22748;8.426;99.512;2023-07-20T07:51:52;100292.06;;;32.36;57.66
36798;BME280;22748;8.426;99.512;2023-07-20T07:54:25;100292.88;;;32.36;57.69
36798;BME280;22748;8.426;99.512;2023-07-20T07:56:55;100290.91;;;32.32;58.39
36798;BME280;22748;8.426;99.512;2023-07-20T07:59:26;100292.31;;;32.23;58.61
36798;BME280;22748;8.426;99.512;2023-07-20T08:01:58;100291.19;;;32.07;58.99
36798;BME280;22748;8.426;99.512;2023-07-20T08:04:34;100290.25;;;32.13;58.89
36798;BME280;22748;8.426;99.512;2023-07-20T08:07:06;100294.13;;;32.17;58.51
36798;BME280;22748;8.426;99.512;2023-07-20T08:09:55;100299.38;;;32.24;58.04
36798;BME280;22748;8.426;99.512;2023-07-20T08:12:36;100297.25;;;32.26;58.09
36798;BME280;22748;8.426;99.512;2023-07-20T08:15:07;100295.72;;;32.30;57.96
36798;BME280;22748;8.426;99.512;2023-07-20T08:17:38;100295.03;;;32.23;58.34
36798;BME280;22748;8.426;99.512;2023-07-20T08:20:10;100299.84;;;32.21;58.12
36798;BME280;22748;8.426;99.512;2023-07-20T08:22:40;100305.38;;;32.26;58.27
36798;BME280;22748;8.426;99.512;2023-07-20T08:25:23;100318.66;;;32.27;58.25
36798;BME280;22748;8.426;99.512;2023-07-20T08:27:57;100344.63;;;32.16;58.79
36798;BME280;22748;8.426;99.512;2023-07-20T08:30:40;100343.72;;;31.99;59.24
36798;BME280;22748;8.426;99.512;2023-07-20T08:33:14;100343.09;;;31.97;59.93
36798;BME280;22748;8.426;99.512;2023-07-20T08:35:45;100337.47;;;31.87;60.45
36798;BME280;22748;8.426;99.512;2023-07-20T08:38:15;100330.91;;;31.83;60.45
36798;BME280;22748;8.426;99.512;2023-07-20T08:40:47;100336.78;;;31.80;61.54
36798;BME280;22748;8.426;99.512;2023-07-20T08:43:18;100341.69;;;31.83;62.21
36798;BME280;22748;8.426;99.512;2023-07-20T08:45:49;100331.72;;;31.83;62.48
36798;BME280;22748;8.426;99.512;2023-07-20T08:48:21;100327.16;;;31.84;62.51
36798;BME280;22748;8.426;99.512;2023-07-20T08:50:53;100324.78;;;31.87;63.32
36798;BME280;22748;8.426;99.512;2023-07-20T08:53:24;100320.56;;;31.91;63.56
36798;BME280;22748;8.426;99.512;2023-07-20T08:56:03;100320.91;;;31.95;63.21
36798;BME280;22748;8.426;99.512;2023-07-20T08:58:36;100322.78;;;31.94;63.24
36798;BME280;22748;8.426;99.512;2023-07-20T09:01:07;100326.53;;;31.93;63.54
36798;BME280;22748;8.426;99.512;2023-07-20T09:03:37;100311.63;;;31.91;63.57
36798;BME280;22748;8.426;99.512;2023-07-20T09:06:12;100318.44;;;31.93;63.75
36798;BME280;22748;8.426;99.512;2023-07-20T09:08:45;100304.00;;;31.88;64.06
36798;BME280;22748;8.426;99.512;2023-07-20T09:11:17;100312.22;;;31.93;63.59
36798;BME280;22748;8.426;99.512;2023-07-20T09:13:49;100309.03;;;31.96;63.59
36798;BME280;22748;8.426;99.512;2023-07-20T09:16:48;100302.13;;;32.00;63.08
36798;BME280;22748;8.426;99.512;2023-07-20T09:19:20;100305.44;;;32.02;63.28
36798;BME280;22748;8.426;99.512;2023-07-20T09:21:51;100297.81;;;31.99;63.29
36798;BME280;22748;8.426;99.512;2023-07-20T09:24:24;100299.44;;;32.00;62.80
36798;BME280;22748;8.426;99.512;2023-07-20T09:26:57;100304.03;;;32.00;62.62
36798;BME280;22748;8.426;99.512;2023-07-20T09:29:28;100305.19;;;32.04;62.92
36798;BME280;22748;8.426;99.512;2023-07-20T09:32:03;100305.44;;;32.02;62.70
36798;BME280;22748;8.426;99.512;2023-07-20T09:34:34;100310.25;;;32.00;62.24
36798;BME280;22748;8.426;99.512;2023-07-20T09:37:05;100306.00;;;32.04;62.08
36798;BME280;22748;8.426;99.512;2023-07-20T09:39:40;100304.25;;;32.10;62.15
36798;BME280;22748;8.426;99.512;2023-07-20T09:42:15;100302.34;;;32.10;62.25
36798;BME280;22748;8.426;99.512;2023-07-20T09:44:45;100297.03;;;32.15;62.67
36798;BME280;22748;8.426;99.512;2023-07-20T09:47:22;100296.81;;;32.17;62.56
36798;BME280;22748;8.426;99.512;2023-07-20T09:49:58;100296.59;;;32.18;62.62
36798;BME280;22748;8.426;99.512;2023-07-20T09:52:30;100297.41;;;32.19;62.68
36798;BME280;22748;8.426;99.512;2023-07-20T09:54:59;100299.84;;;32.21;62.71
36798;BME280;22748;8.426;99.512;2023-07-20T09:57:33;100300.91;;;32.20;62.94
36798;BME280;22748;8.426;99.512;2023-07-20T10:00:05;100299.53;;;32.17;63.08
36798;BME280;22748;8.426;99.512;2023-07-20T10:02:43;100303.84;;;32.18;62.60
36798;BME280;22748;8.426;99.512;2023-07-20T10:05:16;100298.72;;;32.16;62.57
36798;BME280;22748;8.426;99.512;2023-07-20T10:07:48;100307.41;;;32.18;62.48
36798;BME280;22748;8.426;99.512;2023-07-20T10:10:21;100298.22;;;32.20;62.73
36798;BME280;22748;8.426;99.512;2023-07-20T10:12:54;100305.25;;;32.21;62.18
36798;BME280;22748;8.426;99.512;2023-07-20T10:15:30;100303.63;;;32.20;62.84
36798;BME280;22748;8.426;99.512;2023-07-20T10:18:06;100307.84;;;32.15;62.83
36798;BME280;22748;8.426;99.512;2023-07-20T10:20:40;100310.56;;;32.15;62.95
36798;BME280;22748;8.426;99.512;2023-07-20T10:23:20;100309.97;;;32.13;63.11
36798;BME280;22748;8.426;99.512;2023-07-20T10:25:51;100313.75;;;32.12;63.43
36798;BME280;22748;8.426;99.512;2023-07-20T10:28:27;100313.25;;;32.15;63.44
36798;BME280;22748;8.426;99.512;2023-07-20T10:30:58;100315.25;;;32.20;63.18
36798;BME280;22748;8.426;99.512;2023-07-20T10:33:28;100318.53;;;32.22;62.77
36798;BME280;22748;8.426;99.512;2023-07-20T10:36:02;100318.28;;;32.24;62.67
36798;BME280;22748;8.426;99.512;2023-07-20T10:38:53;100313.72;;;32.24;62.53
36798;BME280;22748;8.426;99.512;2023-07-20T10:41:29;100316.41;;;32.24;62.81
36798;BME280;22748;8.426;99.512;2023-07-20T10:44:02;100322.91;;;32.11;63.31
36798;BME280;22748;8.426;99.512;2023-07-20T10:46:43;100326.19;;;32.13;63.78
36798;BME280;22748;8.426;99.512;2023-07-20T10:49:17;100328.78;;;32.08;64.53
36798;BME280;22748;8.426;99.512;2023-07-20T10:51:58;100337.94;;;32.07;64.37
36798;BME280;22748;8.426;99.512;2023-07-20T10:54:50;100343.81;;;32.04;64.25
36798;BME280;22748;8.426;99.512;2023-07-20T10:57:25;100343.47;;;32.01;64.69
36798;BME280;22748;8.426;99.512;2023-07-20T11:00:11;100349.34;;;31.97;64.79
36798;BME280;22748;8.426;99.512;2023-07-20T11:02:46;100354.75;;;31.97;65.06
36798;BME280;22748;8.426;99.512;2023-07-20T11:05:36;100357.66;;;31.96;65.03
36798;BME280;22748;8.426;99.512;2023-07-20T11:08:10;100359.78;;;31.94;65.10
36798;BME280;22748;8.426;99.512;2023-07-20T11:10:42;100361.88;;;31.92;65.33
36798;BME280;22748;8.426;99.512;2023-07-20T11:13:26;100373.75;;;31.91;65.42
36798;BME280;22748;8.426;99.512;2023-07-20T11:16:17;100378.56;;;31.89;65.62
36798;BME280;22748;8.426;99.512;2023-07-20T11:18:48;100382.09;;;31.89;65.60
36798;BME280;22748;8.426;99.512;2023-07-20T11:21:20;100386.66;;;31.89;65.96
36798;BME280;22748;8.426;99.512;2023-07-20T11:23:52;100385.00;;;31.88;66.14
36798;BME280;22748;8.426;99.512;2023-07-20T11:26:24;100382.56;;;31.86;66.18
36798;BME280;22748;8.426;99.512;2023-07-20T11:28:55;100386.56;;;31.84;66.36
36798;BME280;22748;8.426;99.512;2023-07-20T11:31:27;100390.91;;;31.85;66.39
36798;BME280;22748;8.426;99.512;2023-07-20T11:33:58;100397.09;;;31.85;67.07
36798;BME280;22748;8.426;99.512;2023-07-20T11:36:43;100391.97;;;31.84;66.91
36798;BME280;22748;8.426;99.512;2023-07-20T11:39:16;100401.09;;;31.83;66.62
36798;BME280;22748;8.426;99.512;2023-07-20T11:41:50;100400.53;;;31.81;66.79
36798;BME280;22748;8.426;99.512;2023-07-20T11:44:22;100414.50;;;31.77;67.21
36798;BME280;22748;8.426;99.512;2023-07-20T11:47:08;100402.53;;;31.73;67.27
36798;BME280;22748;8.426;99.512;2023-07-20T11:49:41;100409.44;;;31.69;66.94
36798;BME280;22748;8.426;99.512;2023-07-20T11:52:15;100406.50;;;31.71;67.02
36798;BME280;22748;8.426;99.512;2023-07-20T11:54:47;100414.94;;;31.74;67.35
36798;BME280;22748;8.426;99.512;2023-07-20T11:57:18;100425.41;;;31.71;67.47
36798;BME280;22748;8.426;99.512;2023-07-20T12:00:05;100419.66;;;31.67;67.72
36798;BME280;22748;8.426;99.512;2023-07-20T12:02:41;100421.88;;;31.70;67.73
36798;BME280;22748;8.426;99.512;2023-07-20T12:05:14;100431.38;;;31.61;68.15
36798;BME280;22748;8.426;99.512;2023-07-20T12:07:45;100430.09;;;31.64;68.00
36798;BME280;22748;8.426;99.512;2023-07-20T12:10:24;100423.50;;;31.60;68.09
36798;BME280;22748;8.426;99.512;2023-07-20T12:13:00;100433.47;;;31.59;68.13
36798;BME280;22748;8.426;99.512;2023-07-20T12:15:32;100440.97;;;31.57;68.28
36798;BME280;22748;8.426;99.512;2023-07-20T12:18:05;100442.06;;;31.56;67.89
36798;BME280;22748;8.426;99.512;2023-07-20T12:20:38;100445.34;;;31.58;67.80
36798;BME280;22748;8.426;99.512;2023-07-20T12:23:10;100448.03;;;31.58;68.08
36798;BME280;22748;8.426;99.512;2023-07-20T12:28:41;100449.94;;;31.58;67.87
36798;BME280;22748;8.426;99.512;2023-07-20T12:31:16;100449.69;;;31.59;68.38
36798;BME280;22748;8.426;99.512;2023-07-20T12:33:49;100453.78;;;31.62;67.96
36798;BME280;22748;8.426;99.512;2023-07-20T12:36:20;100460.47;;;31.59;68.30
36798;BME280;22748;8.426;99.512;2023-07-20T12:38:50;100457.66;;;31.54;68.32
36798;BME280;22748;8.426;99.512;2023-07-20T12:41:21;100456.00;;;31.53;68.56
36798;BME280;22748;8.426;99.512;2023-07-20T12:43:51;100456.25;;;31.51;68.17
36798;BME280;22748;8.426;99.512;2023-07-20T12:46:26;100458.94;;;31.51;68.44
36798;BME280;22748;8.426;99.512;2023-07-20T12:48:59;100473.13;;;31.47;68.50
36798;BME280;22748;8.426;99.512;2023-07-20T12:51:30;100481.34;;;31.52;68.24
36798;BME280;22748;8.426;99.512;2023-07-20T12:54:02;100483.00;;;31.53;68.45
36798;BME280;22748;8.426;99.512;2023-07-20T12:56:32;100491.09;;;31.53;68.66
36798;BME280;22748;8.426;99.512;2023-07-20T12:59:02;100499.19;;;31.53;68.32
36798;BME280;22748;8.426;99.512;2023-07-20T13:01:34;100504.56;;;31.53;68.56
36798;BME280;22748;8.426;99.512;2023-07-20T13:04:07;100503.75;;;31.52;68.24
36798;BME280;22748;8.426;99.512;2023-07-20T13:06:40;100512.09;;;31.51;68.56
36798;BME280;22748;8.426;99.512;2023-07-20T13:09:12;100518.53;;;31.50;68.57
36798;BME280;22748;8.426;99.512;2023-07-20T13:11:44;100522.88;;;31.51;68.48
36798;BME280;22748;8.426;99.512;2023-07-20T13:14:15;100532.63;;;31.52;68.38
36798;BME280;22748;8.426;99.512;2023-07-20T13:16:44;100520.66;;;31.48;68.33
36798;BME280;22748;8.426;99.512;2023-07-20T13:19:19;100532.03;;;31.50;68.38
36798;BME280;22748;8.426;99.512;2023-07-20T13:21:50;100527.47;;;31.50;68.55
36798;BME280;22748;8.426;99.512;2023-07-20T13:24:21;100532.84;;;31.50;68.46
36798;BME280;22748;8.426;99.512;2023-07-20T13:26:53;100532.03;;;31.50;68.55
36798;BME280;22748;8.426;99.512;2023-07-20T13:29:23;100533.09;;;31.49;68.15
36798;BME280;22748;8.426;99.512;2023-07-20T13:31:54;100547.84;;;31.46;68.32
36798;BME280;22748;8.426;99.512;2023-07-20T13:34:27;100543.31;;;31.47;68.30
36798;BME280;22748;8.426;99.512;2023-07-20T13:36:59;100557.25;;;31.44;68.30
36798;BME280;22748;8.426;99.512;2023-07-20T13:39:31;100556.59;;;31.42;68.35
36798;BME280;22748;8.426;99.512;2023-07-20T13:42:02;100569.09;;;31.43;68.26
36798;BME280;22748;8.426;99.512;2023-07-20T13:44:33;100576.13;;;31.44;68.19
36798;BME280;22748;8.426;99.512;2023-07-20T13:47:03;100575.69;;;31.47;68.39